createdAt,value
2022-11-30T00:01:23.451Z,6.46
2022-11-30T00:03:53.849Z,6.41
2022-11-30T00:06:23.323Z,6.44
2022-11-30T00:08:57.656Z,6.50
2022-11-30T00:11:26.007Z,6.54
2022-11-30T00:13:53.563Z,6.56
2022-11-30T00:16:20.381Z,6.61
2022-11-30T00:18:46.953Z,6.54
2022-11-30T00:21:15.310Z,6.49
2022-11-30T00:23:44.452Z,6.49
2022-11-30T00:26:13.712Z,6.53
2022-11-30T00:28:40.955Z,6.54
2022-11-30T00:31:11.456Z,6.52
2022-11-30T00:33:38.656Z,6.50
2022-11-30T00:36:12.237Z,6.51
2022-11-30T00:38:39.083Z,6.45
2022-11-30T00:41:05.794Z,6.47
2022-11-30T00:43:32.486Z,6.51
2022-11-30T00:45:59.223Z,6.45
2022-11-30T00:48:26.067Z,6.54
2022-11-30T00:50:53.120Z,6.51
2022-11-30T00:53:20.742Z,6.50
2022-11-30T00:55:48.423Z,6.42
2022-11-30T00:58:15.091Z,6.38
2022-11-30T01:00:41.896Z,6.47
2022-11-30T01:03:08.507Z,6.43
2022-11-30T01:05:35.406Z,6.44
2022-11-30T01:08:07.389Z,6.42
2022-11-30T01:10:35.491Z,6.43
2022-11-30T01:13:02.551Z,6.46
2022-11-30T01:15:29.538Z,6.52
2022-11-30T01:17:58.604Z,6.41
2022-11-30T01:20:25.112Z,6.46
2022-11-30T01:22:51.633Z,6.50
2022-11-30T01:25:20.223Z,6.55
2022-11-30T01:27:49.616Z,6.45
2022-11-30T01:30:17.155Z,6.52
2022-11-30T01:32:43.965Z,6.59
2022-11-30T01:35:10.985Z,6.60
2022-11-30T01:37:37.480Z,6.54
2022-11-30T01:40:04.243Z,6.50
2022-11-30T01:42:32.949Z,6.54
2022-11-30T01:45:01.150Z,6.51
2022-11-30T01:47:37.055Z,6.51
2022-11-30T01:50:09.578Z,6.39
2022-11-30T01:52:40.055Z,6.40
2022-11-30T01:55:24.230Z,6.50
2022-11-30T01:57:56.547Z,6.46
2022-11-30T02:00:23.946Z,6.48
2022-11-30T02:03:02.426Z,6.45
2022-11-30T02:05:29.243Z,6.40
2022-11-30T02:07:56.086Z,6.45
2022-11-30T02:10:26.633Z,6.45
2022-11-30T02:13:06.055Z,6.44
2022-11-30T02:15:53.058Z,6.41
2022-11-30T02:18:27.228Z,6.44
2022-11-30T02:21:17.378Z,6.51
2022-11-30T02:23:46.870Z,6.51
2022-11-30T02:26:35.412Z,6.36
2022-11-30T02:29:43.696Z,6.33
2022-11-30T02:32:12.959Z,6.26
2022-11-30T02:34:42.086Z,6.40
2022-11-30T02:37:10.004Z,6.39
2022-11-30T02:39:36.595Z,6.41
2022-11-30T02:42:03.406Z,6.37
2022-11-30T02:44:30.156Z,6.38
2022-11-30T02:47:05.636Z,6.42
2022-11-30T02:49:50.926Z,6.38
2022-11-30T02:52:22.435Z,6.40
2022-11-30T02:54:49.286Z,6.40
2022-11-30T02:57:15.999Z,6.30
2022-11-30T02:59:42.693Z,6.41
2022-11-30T03:02:09.287Z,6.40
2022-11-30T03:04:35.778Z,6.41
2022-11-30T03:07:02.324Z,6.44
2022-11-30T03:09:28.836Z,6.48
2022-11-30T03:11:58.719Z,6.52
2022-11-30T03:14:29.247Z,6.45
2022-11-30T03:16:58.773Z,6.47
2022-11-30T03:19:28.647Z,6.47
2022-11-30T03:21:55.827Z,6.49
2022-11-30T03:24:22.391Z,6.49
2022-11-30T03:26:48.922Z,6.49
2022-11-30T03:29:15.591Z,6.49
2022-11-30T03:31:42.145Z,6.50
2022-11-30T03:34:08.717Z,6.57
2022-11-30T03:36:35.642Z,6.53
2022-11-30T03:39:02.674Z,6.49
2022-11-30T03:41:29.354Z,6.59
2022-11-30T03:43:58.362Z,6.51
2022-11-30T03:46:27.147Z,6.56
2022-11-30T03:48:54.508Z,6.60
2022-11-30T03:51:21.403Z,6.54
2022-11-30T03:53:47.949Z,6.56
2022-11-30T03:56:14.648Z,6.61
2022-11-30T03:58:41.394Z,6.62
2022-11-30T04:01:11.875Z,6.66
2022-11-30T04:03:39.453Z,6.58
2022-11-30T04:06:10.287Z,6.62
2022-11-30T04:08:37.619Z,6.64
2022-11-30T04:11:05.463Z,6.64
2022-11-30T04:13:33.441Z,6.62
2022-11-30T04:16:00.028Z,6.61
2022-11-30T04:18:28.292Z,6.67
2022-11-30T04:20:56.597Z,6.72
2022-11-30T04:23:25.253Z,6.75
2022-11-30T04:25:52.202Z,6.71
2022-11-30T04:28:19.738Z,6.75
2022-11-30T04:30:46.522Z,6.78
2022-11-30T04:33:15.031Z,6.77
2022-11-30T04:35:45.887Z,6.71
2022-11-30T04:38:12.627Z,6.75
2022-11-30T04:40:43.135Z,6.74
2022-11-30T04:43:10.777Z,6.85
2022-11-30T04:45:38.492Z,6.86
2022-11-30T04:48:06.380Z,6.88
2022-11-30T04:50:33.302Z,6.85
2022-11-30T04:53:01.985Z,6.82
2022-11-30T04:55:28.618Z,6.82
2022-11-30T04:57:55.275Z,6.82
2022-11-30T05:00:22.146Z,6.91
2022-11-30T05:02:52.959Z,6.90
2022-11-30T05:05:20.184Z,6.91
2022-11-30T05:07:50.593Z,6.84
2022-11-30T05:10:17.319Z,6.91
2022-11-30T05:12:43.807Z,6.85
2022-11-30T05:15:10.643Z,6.89
2022-11-30T05:17:37.203Z,6.88
2022-11-30T05:20:04.339Z,6.90
2022-11-30T05:22:33.215Z,6.82
2022-11-30T05:24:59.695Z,6.87
2022-11-30T05:27:26.688Z,6.91
2022-11-30T05:29:53.187Z,6.92
2022-11-30T05:32:19.764Z,6.91
2022-11-30T05:34:51.288Z,6.91
2022-11-30T05:37:18.938Z,6.89
2022-11-30T05:39:45.468Z,6.84
2022-11-30T05:42:11.982Z,6.91
2022-11-30T05:44:38.499Z,6.81
2022-11-30T05:47:05.240Z,6.82
2022-11-30T05:49:33.997Z,6.81
2022-11-30T05:52:00.514Z,6.80
2022-11-30T05:54:27.114Z,6.75
2022-11-30T05:56:55.235Z,6.87
2022-11-30T05:59:22.972Z,6.93
2022-11-30T06:01:52.287Z,6.92
2022-11-30T06:04:19.311Z,6.91
2022-11-30T06:06:45.892Z,6.91
2022-11-30T06:09:12.450Z,6.91
2022-11-30T06:11:38.928Z,6.97
2022-11-30T06:14:05.482Z,6.95
2022-11-30T06:16:32.054Z,6.90
2022-11-30T06:18:58.569Z,6.91
2022-11-30T06:21:25.190Z,6.91
2022-11-30T06:23:55.531Z,6.95
2022-11-30T06:26:22.080Z,6.92
2022-11-30T06:28:49.157Z,6.91
2022-11-30T06:31:16.399Z,6.95
2022-11-30T06:33:43.347Z,6.90
2022-11-30T06:36:10.202Z,6.85
2022-11-30T06:38:37.085Z,6.93
2022-11-30T06:41:06.342Z,6.92
2022-11-30T06:43:37.581Z,6.88
2022-11-30T06:46:07.809Z,6.89
2022-11-30T06:48:38.069Z,6.81
2022-11-30T06:51:09.831Z,6.91
2022-11-30T06:53:37.363Z,6.87
2022-11-30T06:56:09.957Z,6.81
2022-11-30T06:58:41.263Z,6.91
2022-11-30T07:01:09.950Z,6.90
2022-11-30T07:03:40.351Z,6.87
2022-11-30T07:06:12.239Z,6.85
2022-11-30T07:08:39.371Z,6.88
2022-11-30T07:11:07.659Z,6.87
2022-11-30T07:13:34.406Z,6.88
2022-11-30T07:16:06.446Z,6.92
2022-11-30T07:18:34.923Z,6.89
2022-11-30T07:21:02.512Z,6.87
2022-11-30T07:23:52.488Z,6.90
2022-11-30T07:26:22.862Z,6.87
2022-11-30T07:28:54.596Z,6.85
2022-11-30T07:31:22.700Z,6.84
2022-11-30T07:33:50.196Z,6.84
2022-11-30T07:36:18.398Z,6.87
2022-11-30T07:38:45.847Z,6.81
2022-11-30T07:41:13.250Z,6.82
2022-11-30T07:43:40.484Z,6.86
2022-11-30T07:46:11.694Z,6.83
2022-11-30T07:48:42.876Z,6.82
2022-11-30T07:51:20.953Z,6.83
2022-11-30T07:53:47.908Z,6.89
2022-11-30T07:56:17.658Z,6.86
2022-11-30T07:58:44.658Z,6.97
2022-11-30T08:01:17.316Z,6.87
2022-11-30T08:03:43.986Z,6.87
2022-11-30T08:06:13.144Z,6.87
2022-11-30T08:08:42.763Z,6.92
2022-11-30T08:11:12.384Z,6.91
2022-11-30T08:13:39.631Z,6.86
2022-11-30T08:16:16.027Z,6.97
2022-11-30T08:18:43.349Z,6.95
2022-11-30T08:21:12.181Z,7.02
2022-11-30T08:23:43.972Z,6.91
2022-11-30T08:26:21.703Z,6.97
2022-11-30T08:28:50.398Z,7.02
2022-11-30T08:31:23.413Z,7.04
2022-11-30T08:33:50.621Z,7.02
2022-11-30T08:36:20.576Z,7.01
2022-11-30T08:38:48.581Z,6.99
2022-11-30T08:41:19.018Z,6.99
2022-11-30T08:43:46.178Z,6.92
2022-11-30T08:46:35.144Z,7.06
2022-11-30T08:49:26.388Z,7.04
2022-11-30T08:52:17.835Z,6.90
2022-11-30T08:54:35.418Z,6.89
2022-11-30T08:57:02.044Z,6.93
2022-11-30T08:59:31.378Z,7.03
2022-11-30T09:01:57.946Z,7.09
2022-11-30T09:04:24.500Z,7.21
2022-11-30T09:06:50.980Z,7.27
2022-11-30T09:09:17.501Z,7.26
2022-11-30T09:11:43.987Z,7.37
2022-11-30T09:14:10.714Z,7.41
2022-11-30T09:16:39.507Z,7.43
2022-11-30T09:19:06.071Z,7.41
2022-11-30T09:21:32.844Z,7.40
2022-11-30T09:23:59.380Z,7.42
2022-11-30T09:26:26.081Z,7.49
2022-11-30T09:28:54.184Z,7.50
2022-11-30T09:31:23.341Z,7.47
2022-11-30T09:33:50.326Z,7.45
2022-11-30T09:36:20.133Z,7.38
2022-11-30T09:38:47.586Z,7.40
2022-11-30T09:41:26.274Z,7.40
2022-11-30T09:43:59.479Z,7.39
2022-11-30T09:46:36.190Z,7.50
2022-11-30T09:49:11.751Z,7.45
2022-11-30T09:51:46.109Z,7.41
2022-11-30T09:54:16.953Z,7.35
2022-11-30T09:56:45.148Z,7.41
2022-11-30T09:59:33.809Z,7.33
2022-11-30T10:02:14.308Z,7.33
2022-11-30T10:04:41.230Z,7.38
2022-11-30T10:07:16.856Z,7.37
2022-11-30T10:13:32.624Z,7.42
2022-11-30T10:16:38.760Z,7.55
2022-11-30T10:19:20.595Z,7.51
2022-11-30T10:22:02.303Z,7.60
2022-11-30T10:24:44.263Z,7.64
2022-11-30T10:27:26.197Z,7.49
2022-11-30T10:29:55.467Z,7.51
2022-11-30T10:32:29.307Z,7.67
2022-11-30T10:35:03.363Z,7.72
2022-11-30T10:37:39.685Z,7.73
2022-11-30T10:40:48.202Z,7.86
2022-11-30T10:43:22.688Z,7.93
2022-11-30T10:45:50.559Z,7.98
2022-11-30T10:48:59.828Z,8.10
2022-11-30T10:51:27.579Z,8.10
2022-11-30T10:53:54.373Z,8.19
2022-11-30T10:56:20.978Z,8.19
2022-11-30T10:58:59.088Z,8.16
2022-11-30T11:01:33.132Z,8.13
2022-11-30T11:04:25.553Z,8.20
2022-11-30T11:07:00.517Z,8.22
2022-11-30T11:09:30.482Z,8.24
2022-11-30T11:12:04.152Z,8.25
2022-11-30T11:14:37.470Z,8.23
2022-11-30T11:17:21.889Z,8.18
2022-11-30T11:19:50.822Z,8.11
2022-11-30T11:22:21.397Z,8.09
2022-11-30T11:24:50.458Z,8.00
2022-11-30T11:27:23.730Z,8.05
2022-11-30T11:30:12.420Z,8.00
2022-11-30T11:32:58.621Z,8.06
2022-11-30T11:35:46.406Z,8.15
2022-11-30T11:38:29.074Z,8.24
2022-11-30T11:40:55.655Z,8.29
2022-11-30T11:43:23.846Z,8.38
2022-11-30T11:45:53.766Z,8.39
2022-11-30T11:48:39.316Z,8.40
2022-11-30T11:51:11.205Z,8.51
2022-11-30T11:53:47.320Z,8.66
2022-11-30T11:56:29.703Z,8.81
2022-11-30T11:59:41.282Z,8.89
2022-11-30T12:02:12.332Z,8.82
2022-11-30T12:04:45.059Z,8.87
2022-11-30T12:07:18.566Z,8.78
2022-11-30T12:10:03.195Z,8.63
2022-11-30T12:12:34.022Z,8.47
2022-11-30T12:15:03.330Z,8.47
2022-11-30T12:17:59.000Z,8.48
2022-11-30T12:20:41.177Z,8.48
2022-11-30T12:23:32.405Z,8.47
2022-11-30T12:26:05.097Z,8.36
2022-11-30T12:28:40.506Z,8.37
2022-11-30T12:31:36.288Z,8.46
2022-11-30T12:34:25.592Z,8.38
2022-11-30T12:37:10.693Z,8.26
2022-11-30T12:39:57.583Z,8.26
2022-11-30T12:42:51.652Z,8.23
2022-11-30T12:45:29.470Z,8.30
2022-11-30T12:48:21.563Z,8.37
2022-11-30T12:51:09.699Z,8.35
2022-11-30T12:53:56.865Z,8.30
2022-11-30T12:56:29.538Z,8.26
2022-11-30T12:59:36.905Z,8.24
2022-11-30T13:02:41.895Z,8.19
2022-11-30T13:05:15.422Z,8.15
2022-11-30T13:08:11.144Z,8.22
2022-11-30T13:10:44.639Z,8.33
2022-11-30T13:13:21.351Z,8.33
2022-11-30T13:15:49.773Z,8.40
2022-11-30T13:18:20.569Z,8.42
2022-11-30T13:20:56.158Z,8.32
2022-11-30T13:23:41.138Z,8.39
2022-11-30T13:26:26.737Z,8.35
2022-11-30T13:29:07.944Z,8.38
2022-11-30T13:31:53.806Z,8.38
2022-11-30T13:34:26.659Z,8.43
2022-11-30T13:37:20.062Z,8.33
2022-11-30T13:39:54.692Z,8.35
2022-11-30T13:42:39.366Z,8.32
2022-11-30T13:45:15.815Z,8.37
2022-11-30T13:47:49.985Z,8.37
2022-11-30T13:50:35.165Z,8.44
2022-11-30T13:53:04.754Z,8.46
2022-11-30T13:55:49.978Z,8.45
2022-11-30T13:58:20.011Z,8.37
2022-11-30T14:01:03.922Z,8.32
2022-11-30T14:03:32.698Z,8.32
2022-11-30T14:06:01.653Z,8.30
2022-11-30T14:08:35.608Z,8.25
2022-11-30T14:11:17.718Z,8.12
2022-11-30T14:13:44.912Z,8.10
2022-11-30T14:16:24.344Z,8.04
2022-11-30T14:18:51.321Z,8.00
2022-11-30T14:21:26.318Z,8.08
2022-11-30T14:23:57.726Z,8.07
2022-11-30T14:26:34.863Z,8.09
2022-11-30T14:29:07.685Z,8.04
2022-11-30T14:31:57.034Z,8.08
2022-11-30T14:34:29.178Z,7.99
2022-11-30T14:36:59.749Z,7.99
2022-11-30T14:39:33.161Z,7.94
2022-11-30T14:42:00.511Z,7.96
2022-11-30T14:44:27.450Z,7.95
2022-11-30T14:46:54.208Z,7.88
2022-11-30T14:49:22.433Z,7.91
2022-11-30T14:51:54.025Z,7.88
2022-11-30T14:54:27.778Z,7.81
2022-11-30T14:57:02.807Z,7.72
2022-11-30T14:59:29.505Z,7.69
2022-11-30T15:02:03.001Z,7.67
2022-11-30T15:04:30.873Z,7.65
2022-11-30T15:06:58.356Z,7.64
2022-11-30T15:09:30.536Z,7.64
2022-11-30T15:11:58.121Z,7.71
2022-11-30T15:14:24.840Z,7.75
2022-11-30T15:16:57.133Z,7.70
2022-11-30T15:19:33.361Z,7.66
2022-11-30T15:22:00.567Z,7.72
2022-11-30T15:24:29.463Z,7.62
2022-11-30T15:27:10.980Z,7.72
2022-11-30T15:30:00.770Z,7.68
2022-11-30T15:32:29.144Z,7.67
2022-11-30T15:35:01.015Z,7.72
2022-11-30T15:37:31.244Z,7.69
2022-11-30T15:40:00.781Z,7.66
2022-11-30T15:42:41.950Z,7.57
2022-11-30T15:45:16.801Z,7.63
2022-11-30T15:47:44.142Z,7.67
2022-11-30T15:50:46.037Z,7.61
2022-11-30T15:53:24.463Z,7.61
2022-11-30T15:55:54.581Z,7.56
2022-11-30T15:58:26.828Z,7.67
2022-11-30T16:01:08.393Z,7.63
2022-11-30T16:03:58.152Z,7.66
2022-11-30T16:06:46.000Z,7.57
2022-11-30T16:09:32.185Z,7.50
2022-11-30T16:12:00.799Z,7.40
2022-11-30T16:14:28.423Z,7.45
2022-11-30T16:17:05.508Z,7.43
2022-11-30T16:20:04.490Z,7.37
2022-11-30T16:22:30.517Z,7.42
2022-11-30T16:24:57.114Z,7.43
2022-11-30T16:27:23.729Z,7.45
2022-11-30T16:29:52.883Z,7.51
2022-11-30T16:32:19.820Z,7.49
2022-11-30T16:34:48.151Z,7.39
2022-11-30T16:37:14.779Z,7.46
2022-11-30T16:39:43.822Z,7.48
2022-11-30T16:42:21.655Z,7.36
2022-11-30T16:44:50.500Z,7.33
2022-11-30T16:47:17.014Z,7.37
2022-11-30T16:49:47.393Z,7.33
2022-11-30T16:52:20.498Z,7.39
2022-11-30T16:54:47.049Z,7.38
2022-11-30T16:57:14.562Z,7.31
2022-11-30T16:59:49.174Z,7.15
2022-11-30T17:02:20.317Z,7.25
2022-11-30T17:04:47.177Z,7.24
2022-11-30T17:07:14.247Z,7.23
2022-11-30T17:09:42.939Z,7.18
2022-11-30T17:12:09.596Z,7.24
2022-11-30T17:14:36.167Z,7.16
2022-11-30T17:17:02.832Z,7.09
2022-11-30T17:19:29.514Z,7.15
2022-11-30T17:21:56.053Z,7.03
2022-11-30T17:24:22.551Z,6.96
2022-11-30T17:26:49.092Z,6.99
2022-11-30T17:29:15.631Z,6.94
2022-11-30T17:31:45.195Z,6.92
2022-11-30T17:34:13.172Z,7.03
2022-11-30T17:36:39.696Z,6.91
2022-11-30T17:39:07.699Z,6.82
2022-11-30T17:41:34.831Z,6.75
2022-11-30T17:44:02.351Z,6.82
2022-11-30T17:46:28.882Z,6.74
2022-11-30T17:48:55.871Z,6.76
2022-11-30T17:51:22.565Z,6.71
2022-11-30T17:53:49.540Z,6.74
2022-11-30T17:56:17.187Z,6.78
2022-11-30T17:58:46.157Z,6.68
2022-11-30T18:01:18.036Z,6.69
2022-11-30T18:03:45.592Z,6.83
2022-11-30T18:06:13.967Z,6.78
2022-11-30T18:08:40.692Z,6.78
2022-11-30T18:11:16.991Z,6.73
2022-11-30T18:13:43.765Z,6.77
2022-11-30T18:16:19.408Z,6.71
2022-11-30T18:18:48.440Z,6.65
2022-11-30T18:21:18.260Z,6.62
2022-11-30T18:23:45.099Z,6.58
2022-11-30T18:26:19.282Z,6.66
2022-11-30T18:28:46.663Z,6.61
2022-11-30T18:31:17.330Z,6.63
2022-11-30T18:33:47.318Z,6.57
2022-11-30T18:36:14.062Z,6.59
2022-11-30T18:38:43.618Z,6.65
2022-11-30T18:41:10.422Z,6.65
2022-11-30T18:43:39.750Z,6.58
2022-11-30T18:46:09.044Z,6.58
2022-11-30T18:48:37.016Z,6.51
2022-11-30T18:51:15.160Z,6.58
2022-11-30T18:53:43.856Z,6.57
2022-11-30T18:56:20.007Z,6.54
2022-11-30T18:58:48.273Z,6.53
2022-11-30T19:01:18.319Z,6.48
2022-11-30T19:03:54.937Z,6.48
2022-11-30T19:06:22.212Z,6.50
2022-11-30T19:08:48.848Z,6.53
2022-11-30T19:11:16.532Z,6.52
2022-11-30T19:13:44.854Z,6.53
2022-11-30T19:16:15.879Z,6.26
2022-11-30T19:18:45.630Z,6.34
2022-11-30T19:21:16.873Z,6.25
2022-11-30T19:23:46.867Z,6.18
2022-11-30T19:26:16.533Z,6.21
2022-11-30T19:28:44.897Z,6.17
2022-11-30T19:31:19.971Z,6.27
2022-11-30T19:33:49.584Z,6.28
2022-11-30T19:36:19.481Z,6.22
2022-11-30T19:38:46.691Z,6.23
2022-11-30T19:41:20.210Z,6.24
2022-11-30T19:43:54.729Z,6.25
2022-11-30T19:46:23.004Z,6.22
2022-11-30T19:48:59.469Z,6.24
2022-11-30T19:51:30.203Z,6.19
2022-11-30T19:53:57.805Z,6.10
2022-11-30T19:56:25.710Z,6.15
2022-11-30T19:58:52.803Z,6.09
2022-11-30T20:01:25.303Z,6.10
2022-11-30T20:03:57.122Z,6.06
2022-11-30T20:06:29.501Z,6.11
2022-11-30T20:08:56.282Z,6.07
2022-11-30T20:11:23.356Z,6.00
2022-11-30T20:13:51.444Z,6.02
2022-11-30T20:16:21.594Z,5.99
2022-11-30T20:19:02.535Z,6.00
2022-11-30T20:21:33.219Z,5.86
2022-11-30T20:24:02.445Z,5.86
2022-11-30T20:26:47.271Z,5.89
2022-11-30T20:29:15.990Z,5.83
2022-11-30T20:31:47.606Z,5.79
2022-11-30T20:34:14.549Z,5.79
2022-11-30T20:36:43.765Z,5.86
2022-11-30T20:39:12.479Z,5.85
2022-11-30T20:41:39.058Z,5.84
2022-11-30T20:44:06.007Z,5.73
2022-11-30T20:46:34.840Z,5.72
2022-11-30T20:49:03.400Z,5.66
2022-11-30T20:51:33.646Z,5.76
2022-11-30T20:54:06.124Z,5.79
2022-11-30T20:56:34.053Z,5.87
2022-11-30T20:59:02.472Z,5.76
2022-11-30T21:01:29.202Z,5.66
2022-11-30T21:03:55.761Z,5.65
2022-11-30T21:06:22.308Z,5.76
2022-11-30T21:08:48.827Z,5.85
2022-11-30T21:11:18.530Z,5.78
2022-11-30T21:13:47.457Z,5.78
2022-11-30T21:16:16.126Z,5.83
2022-11-30T21:18:45.798Z,5.74
2022-11-30T21:21:18.222Z,5.79
2022-11-30T21:23:45.169Z,5.71
2022-11-30T21:26:17.489Z,5.67
2022-11-30T21:28:44.775Z,5.66
2022-11-30T21:31:14.773Z,5.64
2022-11-30T21:33:50.928Z,5.75
2022-11-30T21:36:19.615Z,5.64
2022-11-30T21:38:46.259Z,5.65
2022-11-30T21:41:15.573Z,5.59
2022-11-30T21:43:44.540Z,5.57
2022-11-30T21:46:17.916Z,5.56
2022-11-30T21:48:49.554Z,5.56
2022-11-30T21:51:22.106Z,5.53
2022-11-30T21:53:51.718Z,5.43
2022-11-30T21:56:21.066Z,5.56
2022-11-30T21:58:49.124Z,5.47
2022-11-30T22:01:19.898Z,5.53
2022-11-30T22:03:46.973Z,5.50
2022-11-30T22:06:18.862Z,5.55
2022-11-30T22:08:46.317Z,5.52
2022-11-30T22:11:21.448Z,5.46
2022-11-30T22:13:53.667Z,5.51
2022-11-30T22:16:21.959Z,5.45
2022-11-30T22:18:51.676Z,5.56
2022-11-30T22:21:20.959Z,5.58
2022-11-30T22:23:52.526Z,5.65
2022-11-30T22:26:22.614Z,5.66
2022-11-30T22:28:54.418Z,5.58
2022-11-30T22:31:23.185Z,5.61
2022-11-30T22:33:49.925Z,5.62
2022-11-30T22:36:19.542Z,5.64
2022-11-30T22:38:57.165Z,5.64
2022-11-30T22:41:24.533Z,5.61
2022-11-30T22:43:51.432Z,5.58
2022-11-30T22:46:21.104Z,5.56
2022-11-30T22:48:51.411Z,5.64
2022-11-30T22:51:25.703Z,5.65
2022-11-30T22:53:53.100Z,5.65
2022-11-30T22:56:20.962Z,5.69
2022-11-30T22:58:54.157Z,5.67
2022-11-30T23:01:26.639Z,5.75
2022-11-30T23:03:56.258Z,5.84
2022-11-30T23:06:24.583Z,5.86
2022-11-30T23:08:52.202Z,5.88
2022-11-30T23:11:24.362Z,5.86
2022-11-30T23:13:51.148Z,5.83
2022-11-30T23:16:21.851Z,5.80
2022-11-30T23:18:57.163Z,5.86
2022-11-30T23:21:30.404Z,5.90
2022-11-30T23:23:59.374Z,5.79
2022-11-30T23:26:29.341Z,5.65
2022-11-30T23:28:59.162Z,5.81
2022-11-30T23:31:34.266Z,5.77
2022-11-30T23:34:07.840Z,5.77
2022-11-30T23:36:35.564Z,5.80
2022-11-30T23:39:08.294Z,5.83
2022-11-30T23:41:35.056Z,5.73
2022-11-30T23:44:02.063Z,5.81
2022-11-30T23:46:28.671Z,5.84
2022-11-30T23:48:55.805Z,5.72
2022-11-30T23:51:23.730Z,5.84
2022-11-30T23:53:53.767Z,5.83
2022-11-30T23:56:22.181Z,5.84
2022-11-30T23:58:52.459Z,5.74
